Time;durP1;ratioP1;P1;durP2;ratioP2;P2;SDS_P1;SDS_P2;PMS_P1;PMS_P2;Temp;Humidity;BMP_temperature;BMP_pressure;BME280_temperature;BME280_humidity;BME280_pressure;Samples;Min_cycle;Max_cycle;Signal;HPM_P1;HPM_P2
2022/11/08 00:02:57;;;;;;;4.13;2.40;;;8.00;99.90;;;;;;8418971;28;20206;-70
2022/11/08 00:15:37;;;;;;;4.93;2.83;;;8.10;1.00;;;;;;8418158;28;20203;-69
2022/11/08 00:19:38;;;;;;;5.57;3.50;;;8.20;1.00;;;;;;8397470;28;20468;-70
2022/11/08 00:23:38;;;;;;;5.80;2.93;;;8.30;1.00;;;;;;8400128;28;20208;-71
2022/11/08 00:27:39;;;;;;;5.37;2.97;;;8.50;99.90;;;;;;8399452;28;20196;-70
2022/11/08 00:31:40;;;;;;;4.27;2.67;;;8.60;1.00;;;;;;8415280;28;20199;-70
2022/11/08 00:35:41;;;;;;;3.67;2.27;;;8.70;99.90;;;;;;8397536;28;20185;-70
2022/11/08 00:39:42;;;;;;;5.00;2.90;;;8.80;23.30;;;;;;8414086;28;20279;-71
2022/11/08 00:43:42;;;;;;;5.63;2.73;;;8.90;99.90;;;;;;8395101;28;20177;-72
2022/11/08 00:47:43;;;;;;;6.97;2.83;;;9.00;99.90;;;;;;8413504;28;20519;-70
2022/11/08 00:51:44;;;;;;;4.67;2.80;;;9.10;99.90;;;;;;8412191;28;20183;-71
2022/11/08 00:55:45;;;;;;;3.60;2.60;;;9.10;66.60;;;;;;8395991;28;20191;-70
2022/11/08 00:59:45;;;;;;;3.80;2.23;;;9.20;99.90;;;;;;8394583;28;20210;-72
2022/11/08 01:03:47;;;;;;;3.80;2.60;;;9.20;1.00;;;;;;8396771;28;20218;-71
2022/11/08 01:07:48;;;;;;;4.50;2.60;;;9.20;99.90;;;;;;8411090;28;20187;-71
2022/11/08 01:11:49;;;;;;;5.57;2.80;;;9.00;99.90;;;;;;8395061;28;20239;-71
2022/11/08 01:15:49;;;;;;;3.70;2.33;;;8.90;99.90;;;;;;8393766;28;20189;-70
2022/11/08 01:19:50;;;;;;;6.57;2.83;;;8.80;1.00;;;;;;8394845;28;20206;-70
2022/11/08 01:23:53;;;;;;;4.90;2.53;;;8.70;99.90;;;;;;8412136;28;20182;-71
2022/11/08 01:27:54;;;;;;;5.43;2.63;;;8.60;1.00;;;;;;8393325;28;20186;-70
2022/11/08 01:31:55;;;;;;;4.67;2.80;;;8.60;20.70;;;;;;8412546;28;20181;-70
2022/11/08 01:35:56;;;;;;;4.43;2.70;;;8.50;1.00;;;;;;8409385;28;20172;-70
2022/11/08 01:39:56;;;;;;;5.80;2.60;;;8.50;99.90;;;;;;8396151;28;20216;-71
2022/11/08 01:43:58;;;;;;;5.60;2.67;;;8.40;99.90;;;;;;8414972;28;20177;-70
2022/11/08 01:47:59;;;;;;;3.93;2.50;;;8.40;99.90;;;;;;8405742;28;20189;-70
2022/11/08 01:52:02;;;;;;;3.30;2.30;;;8.30;1.00;;;;;;8395446;28;20203;-71
2022/11/08 01:56:04;;;;;;;5.67;2.63;;;8.20;1.00;;;;;;8418805;28;20181;-71
2022/11/08 02:00:09;;;;;;;3.67;2.53;;;8.20;1.00;;;;;;8415280;28;20273;-70
2022/11/08 02:04:11;;;;;;;4.00;2.40;;;8.10;99.90;;;;;;8413527;28;20276;-71
2022/11/08 02:08:20;;;;;;;4.43;2.27;;;8.00;1.00;;;;;;8400085;28;20179;-71
2022/11/08 02:12:22;;;;;;;5.10;2.70;;;7.90;99.90;;;;;;8417772;28;20178;-70
2022/11/08 02:16:22;;;;;;;5.63;2.80;;;7.80;99.90;;;;;;8419250;28;20177;-70
2022/11/08 02:20:23;;;;;;;5.37;2.43;;;7.70;19.40;;;;;;8417548;28;20211;-70
2022/11/08 02:24:24;;;;;;;5.47;2.60;;;7.60;99.90;;;;;;8420387;28;20208;-71
2022/11/08 02:28:25;;;;;;;4.73;2.50;;;7.60;1.00;;;;;;8418258;28;20187;-70
2022/11/08 02:32:35;;;;;;;4.20;2.80;;;7.50;1.00;;;;;;8400433;28;20274;-69
2022/11/08 02:36:36;;;;;;;2.30;2.00;;;7.40;70.20;;;;;;8414734;28;20181;-71
2022/11/08 02:40:51;;;;;;;2.93;2.37;;;7.30;99.90;;;;;;8399135;28;20208;-70
2022/11/08 02:44:52;;;;;;;3.43;2.40;;;7.30;99.90;;;;;;8400029;28;20191;-71
2022/11/08 02:48:53;;;;;;;4.90;2.57;;;7.30;99.90;;;;;;8391562;28;20180;-71
2022/11/08 02:52:54;;;;;;;3.63;2.43;;;7.30;99.90;;;;;;8415599;28;20196;-71
2022/11/08 02:56:54;;;;;;;4.37;2.80;;;7.10;99.90;;;;;;8398351;28;20636;-70
2022/11/08 03:00:55;;;;;;;4.40;2.80;;;7.00;99.90;;;;;;8395914;28;20204;-70
2022/11/08 03:04:56;;;;;;;3.57;2.50;;;6.80;99.90;;;;;;8418577;28;20190;-70
2022/11/08 03:08:57;;;;;;;3.47;2.57;;;6.60;99.90;;;;;;8416705;28;20188;-71
2022/11/08 03:13:00;;;;;;;6.63;2.77;;;6.60;99.90;;;;;;8415988;28;20180;-71
2022/11/08 03:17:00;;;;;;;6.03;2.90;;;6.50;99.90;;;;;;8397112;28;20468;-71
2022/11/08 03:21:01;;;;;;;6.17;3.00;;;6.40;99.90;;;;;;8418939;28;20238;-70
2022/11/08 03:25:02;;;;;;;4.47;3.13;;;6.30;99.90;;;;;;8399161;28;20325;-71
2022/11/08 03:29:03;;;;;;;5.23;3.30;;;6.30;99.90;;;;;;8398494;28;20252;-70
2022/11/08 03:33:04;;;;;;;7.23;3.67;;;6.40;99.90;;;;;;8398609;28;20177;-70
2022/11/08 03:37:06;;;;;;;5.10;3.53;;;6.50;99.90;;;;;;8400624;28;20263;-70
2022/11/08 03:41:07;;;;;;;3.83;3.17;;;6.50;99.90;;;;;;8399367;28;20212;-71
2022/11/08 03:45:08;;;;;;;5.97;3.53;;;6.60;99.90;;;;;;8399382;28;20249;-71
2022/11/08 03:49:09;;;;;;;4.03;3.50;;;6.60;99.90;;;;;;8396289;28;20520;-71
2022/11/08 03:53:09;;;;;;;4.53;3.60;;;6.60;99.90;;;;;;8399903;28;20232;-70
2022/11/08 03:57:11;;;;;;;5.40;3.60;;;6.70;99.90;;;;;;8418978;28;20242;-70
2022/11/08 04:01:12;;;;;;;4.53;3.73;;;6.70;99.90;;;;;;8417180;28;20601;-70
2022/11/08 04:05:14;;;;;;;4.77;4.27;;;6.70;99.90;;;;;;8401085;28;20199;-70
2022/11/08 04:09:15;;;;;;;5.77;4.20;;;6.70;99.90;;;;;;8403021;28;20165;-70
2022/11/08 04:21:56;;;;;;;5.33;4.10;;;6.70;99.90;;;;;;8411440;28;20303;-70
2022/11/08 04:25:59;;;;;;;6.57;4.90;;;6.70;99.90;;;;;;8411138;28;20180;-72
2022/11/08 04:29:59;;;;;;;5.53;4.30;;;6.80;99.90;;;;;;8398263;28;20443;-70
2022/11/08 04:34:00;;;;;;;6.53;4.43;;;6.80;99.90;;;;;;8395452;28;20189;-70
2022/11/08 04:38:01;;;;;;;5.33;4.10;;;6.90;99.90;;;;;;8394145;28;20180;-70
2022/11/08 04:42:02;;;;;;;6.67;4.47;;;6.80;99.90;;;;;;8394019;28;20208;-71
2022/11/08 04:46:06;;;;;;;4.73;4.03;;;6.80;99.90;;;;;;8396230;28;20180;-71
2022/11/08 04:50:07;;;;;;;6.00;4.87;;;6.60;99.90;;;;;;8396674;28;20185;-71
2022/11/08 04:54:09;;;;;;;16.30;9.50;;;6.50;99.90;;;;;;8396604;28;20267;-70
2022/11/08 04:58:10;;;;;;;13.93;8.00;;;6.30;99.90;;;;;;8394598;28;20272;-71
2022/11/08 05:02:11;;;;;;;12.43;7.97;;;6.00;99.90;;;;;;8397075;28;20196;-71
2022/11/08 05:06:13;;;;;;;24.93;13.33;;;5.90;99.90;;;;;;8397184;28;20200;-70
2022/11/08 05:10:14;;;;;;;24.37;13.10;;;5.70;99.90;;;;;;8414147;28;20211;-71
2022/11/08 05:14:15;;;;;;;25.23;13.37;;;5.60;99.90;;;;;;8396219;28;20268;-71
2022/11/08 05:18:16;;;;;;;25.97;13.57;;;5.40;99.90;;;;;;8396159;28;20188;-71
2022/11/08 05:26:38;;;;;;;23.83;12.10;;;5.10;99.90;;;;;;8417371;28;20242;-71
2022/11/08 05:30:38;;;;;;;23.97;11.80;;;5.00;99.90;;;;;;8399120;28;20196;-71
2022/11/08 05:34:39;;;;;;;21.17;11.67;;;4.90;99.90;;;;;;8410460;28;20220;-71
2022/11/08 05:38:41;;;;;;;23.43;10.87;;;4.70;99.90;;;;;;8400062;28;20286;-71
2022/11/08 05:42:42;;;;;;;17.57;10.53;;;4.60;99.90;;;;;;8403235;28;20212;-71
2022/11/08 05:46:42;;;;;;;34.80;16.37;;;4.40;99.90;;;;;;8418249;28;20279;-69
2022/11/08 05:50:43;;;;;;;37.27;17.00;;;4.40;99.90;;;;;;8402119;28;20192;-71
2022/11/08 05:54:44;;;;;;;55.53;20.20;;;4.30;99.90;;;;;;8421649;28;20267;-74
2022/11/08 05:58:45;;;;;;;35.03;15.97;;;4.40;99.90;;;;;;8407204;28;20204;-71
2022/11/08 06:02:46;;;;;;;36.37;16.23;;;4.40;99.90;;;;;;8401872;28;20526;-71
2022/11/08 06:06:49;;;;;;;41.40;19.83;;;4.40;99.90;;;;;;8401396;28;20184;-71
2022/11/08 06:10:49;;;;;;;40.73;19.60;;;4.40;99.90;;;;;;8398901;28;20237;-71
2022/11/08 06:14:50;;;;;;;36.10;16.37;;;4.40;99.90;;;;;;8419704;28;20240;-71
2022/11/08 06:18:51;;;;;;;32.00;13.93;;;4.30;99.90;;;;;;8401753;28;20242;-72
2022/11/08 06:22:54;;;;;;;25.90;13.87;;;4.20;99.90;;;;;;8418670;28;20289;-72
2022/11/08 06:26:54;;;;;;;32.77;15.20;;;4.20;99.90;;;;;;8401700;28;20181;-71
2022/11/08 06:30:58;;;;;;;42.93;19.30;;;4.20;99.90;;;;;;8401713;28;20216;-71
2022/11/08 06:34:59;;;;;;;45.97;22.30;;;4.20;99.90;;;;;;8418163;28;20184;-71
2022/11/08 06:38:59;;;;;;;51.83;21.80;;;4.30;99.90;;;;;;8397148;28;20283;-69
2022/11/08 06:43:00;;;;;;;40.87;19.60;;;4.40;99.90;;;;;;8399395;28;20270;-70
2022/11/08 06:47:01;;;;;;;38.73;20.17;;;4.40;99.90;;;;;;8397963;28;20188;-70
2022/11/08 06:51:03;;;;;;;38.80;20.20;;;4.50;99.90;;;;;;8400388;28;20222;-70
2022/11/08 06:55:04;;;;;;;37.07;20.47;;;4.70;99.90;;;;;;8399084;28;20184;-70
2022/11/08 06:59:05;;;;;;;34.30;17.33;;;4.90;99.90;;;;;;8399540;28;20261;-70
2022/11/08 07:03:05;;;;;;;25.23;15.43;;;5.10;99.90;;;;;;8395865;28;20544;-70
2022/11/08 07:07:06;;;;;;;22.17;14.97;;;5.20;99.90;;;;;;8399198;28;20203;-69
2022/11/08 07:11:07;;;;;;;24.00;14.70;;;5.30;99.90;;;;;;8399923;28;20180;-70
2022/11/08 07:15:09;;;;;;;26.73;16.63;;;5.60;99.90;;;;;;8397162;28;20184;-69
2022/11/08 07:19:10;;;;;;;36.17;20.60;;;5.80;99.90;;;;;;8399160;28;20200;-70
2022/11/08 07:23:11;;;;;;;25.87;17.60;;;6.20;99.90;;;;;;8417216;28;20201;-71
2022/11/08 07:27:12;;;;;;;23.57;15.70;;;6.50;99.90;;;;;;8419973;28;20183;-71
2022/11/08 07:31:12;;;;;;;18.10;11.83;;;6.70;99.90;;;;;;8422033;28;20200;-72
2022/11/08 07:35:13;;;;;;;12.77;10.23;;;6.90;99.90;;;;;;8404362;28;20175;-71
2022/11/08 07:39:14;;;;;;;12.27;9.27;;;7.20;99.90;;;;;;8401785;28;20188;-72
2022/11/08 07:43:15;;;;;;;11.40;7.17;;;7.40;99.90;;;;;;8420887;28;20571;-72
2022/11/08 07:47:16;;;;;;;10.67;6.93;;;7.70;99.90;;;;;;8400851;28;20181;-71
2022/11/08 07:51:16;;;;;;;9.80;6.07;;;8.00;99.90;;;;;;8400574;28;20234;-72
2022/11/08 07:55:17;;;;;;;7.67;5.03;;;8.30;99.90;;;;;;8399372;28;20191;-72
2022/11/08 07:59:18;;;;;;;6.33;5.13;;;8.70;99.90;;;;;;8398399;28;20734;-71
2022/11/08 08:03:19;;;;;;;8.70;5.90;;;9.00;99.90;;;;;;8400202;28;20269;-71
2022/11/08 08:07:19;;;;;;;8.87;5.77;;;9.30;99.90;;;;;;8400104;28;20187;-71
2022/11/08 08:11:20;;;;;;;7.90;4.90;;;9.50;99.90;;;;;;8396209;28;20238;-71
2022/11/08 08:15:21;;;;;;;7.50;4.47;;;9.80;99.90;;;;;;8396293;28;20196;-72
2022/11/08 08:19:22;;;;;;;7.63;4.60;;;10.10;99.90;;;;;;8397802;28;20184;-73
2022/11/08 08:23:23;;;;;;;4.60;3.80;;;10.30;99.90;;;;;;8418126;28;20232;-72
2022/11/08 08:27:24;;;;;;;11.90;4.47;;;10.50;99.90;;;;;;8414865;28;20184;-72
2022/11/08 08:31:24;;;;;;;5.63;4.10;;;10.70;99.90;;;;;;8416050;28;20188;-70
2022/11/08 08:35:25;;;;;;;7.23;4.13;;;10.80;99.90;;;;;;8397254;28;20598;-71
2022/11/08 08:39:26;;;;;;;6.10;3.60;;;11.10;99.90;;;;;;8415844;28;20276;-71
2022/11/08 08:43:28;;;;;;;7.67;3.70;;;11.40;99.90;;;;;;8398970;28;20200;-72
2022/11/08 08:47:28;;;;;;;6.93;3.37;;;11.60;99.90;;;;;;8397471;28;20176;-70
2022/11/08 08:51:29;;;;;;;3.90;3.03;;;11.70;99.90;;;;;;8415329;28;20195;-71
2022/11/08 08:55:31;;;;;;;6.03;3.03;;;11.90;99.90;;;;;;8400515;28;20192;-71
2022/11/08 08:59:32;;;;;;;5.93;3.30;;;12.00;99.90;;;;;;8396221;28;20305;-71
2022/11/08 09:03:33;;;;;;;6.00;3.13;;;12.20;99.90;;;;;;8397973;28;20260;-71
2022/11/08 09:07:34;;;;;;;5.10;2.93;;;12.40;1.00;;;;;;8396825;28;20272;-71
2022/11/08 09:11:35;;;;;;;4.53;3.03;;;12.60;99.90;;;;;;8397683;28;20194;-71
2022/11/08 09:15:36;;;;;;;4.87;2.77;;;12.60;99.90;;;;;;8395740;28;20196;-71
2022/11/08 09:19:36;;;;;;;4.33;3.10;;;12.60;99.90;;;;;;8390358;28;20225;-71
2022/11/08 09:23:37;;;;;;;7.57;3.40;;;12.80;99.90;;;;;;8397857;28;20177;-70
2022/11/08 09:27:38;;;;;;;7.70;3.33;;;13.00;68.40;;;;;;8413558;28;20330;-71
2022/11/08 09:31:38;;;;;;;10.87;3.57;;;13.10;1.00;;;;;;8415507;28;20243;-71
2022/11/08 09:35:39;;;;;;;7.53;3.37;;;13.20;1.00;;;;;;8410849;28;20246;-71
2022/11/08 09:39:40;;;;;;;7.47;3.23;;;13.20;1.00;;;;;;8392917;28;20317;-71
2022/11/08 09:44:08;;;;;;;4.43;3.30;;;13.20;1.00;;;;;;8395009;28;20184;-72
2022/11/08 09:48:41;;;;;;;4.83;2.63;;;13.30;1.00;;;;;;8395521;28;20529;-70
2022/11/08 09:52:45;;;;;;;4.60;2.93;;;13.50;1.00;;;;;;8396250;28;20196;-71
2022/11/08 09:56:46;;;;;;;4.53;2.57;;;13.70;99.90;;;;;;8411064;28;20195;-71
2022/11/08 10:00:52;;;;;;;2.80;2.40;;;13.80;99.90;;;;;;8391850;28;20235;-71
2022/11/08 10:04:57;;;;;;;4.60;2.23;;;14.00;99.90;;;;;;8407654;28;20188;-70
2022/11/08 10:08:58;;;;;;;4.30;2.30;;;14.20;99.90;;;;;;8408864;28;20207;-70
2022/11/08 10:13:40;;;;;;;3.80;2.33;;;14.40;99.90;;;;;;8396651;28;20608;-70
2022/11/08 10:18:02;;;;;;;3.90;2.13;;;14.50;99.90;;;;;;8381175;28;20196;-71
2022/11/08 10:22:36;;;;;;;4.57;2.10;;;14.60;99.90;;;;;;8397074;28;20215;-71
2022/11/08 10:26:41;;;;;;;5.50;1.93;;;14.80;84.70;;;;;;8396796;28;20308;-70
2022/11/08 10:30:46;;;;;;;3.07;1.73;;;14.90;59.00;;;;;;8399424;28;20211;-70
2022/11/08 10:34:55;;;;;;;5.10;2.00;;;15.00;1.00;;;;;;8401918;28;20211;-71
2022/11/08 10:39:07;;;;;;;3.50;1.43;;;15.10;1.00;;;;;;8394616;28;20176;-70
2022/11/08 10:43:25;;;;;;;2.40;1.40;;;15.30;1.00;;;;;;8414258;28;20222;-71
2022/11/08 10:47:29;;;;;;;3.83;1.90;;;15.40;1.00;;;;;;8419599;28;20207;-71
2022/11/08 10:51:30;;;;;;;3.70;1.70;;;15.50;1.00;;;;;;8402143;28;20184;-71
2022/11/08 10:55:37;;;;;;;4.07;1.77;;;15.60;1.00;;;;;;8416964;28;20298;-71
2022/11/08 10:59:38;;;;;;;3.20;1.67;;;15.70;1.00;;;;;;8416083;28;20208;-70
2022/11/08 11:03:39;;;;;;;3.80;1.87;;;15.70;1.00;;;;;;8400629;28;20283;-71
2022/11/08 11:07:40;;;;;;;2.13;1.90;;;15.80;1.00;;;;;;8399675;28;20528;-70
2022/11/08 11:11:41;;;;;;;2.60;1.50;;;15.90;1.00;;;;;;8403423;28;20185;-69
2022/11/08 11:15:45;;;;;;;5.33;1.70;;;15.90;1.00;;;;;;8417882;28;20188;-70
2022/11/08 11:19:53;;;;;;;2.20;1.30;;;16.00;1.00;;;;;;8401356;28;20204;-70
2022/11/08 11:24:06;;;;;;;2.43;1.20;;;16.10;1.00;;;;;;8414542;28;20193;-70
2022/11/08 11:28:12;;;;;;;2.27;1.00;;;16.20;99.90;;;;;;8415744;28;20184;-70
2022/11/08 11:32:22;;;;;;;4.37;1.13;;;16.30;99.90;;;;;;8415149;28;20183;-70
2022/11/08 11:36:28;;;;;;;2.50;1.17;;;16.30;99.90;;;;;;8390662;28;20343;-70
2022/11/08 11:40:33;;;;;;;4.10;1.37;;;16.40;99.90;;;;;;8398959;28;20234;-70
2022/11/08 11:44:46;;;;;;;3.30;1.07;;;16.50;99.90;;;;;;8414310;28;20184;-70
2022/11/08 11:48:58;;;;;;;2.93;1.50;;;16.50;99.90;;;;;;8416147;28;20268;-70
2022/11/08 11:53:21;;;;;;;3.47;1.50;;;16.50;99.90;;;;;;8398092;28;20188;-70
2022/11/08 11:57:42;;;;;;;3.03;1.07;;;16.60;99.90;;;;;;8380722;28;20227;-71
2022/11/08 12:02:00;;;;;;;4.70;1.30;;;16.60;99.90;;;;;;8417572;28;20342;-72
2022/11/08 12:06:20;;;;;;;2.70;1.27;;;16.70;99.90;;;;;;8417458;28;20208;-70
2022/11/08 12:10:52;;;;;;;3.80;1.50;;;16.70;99.90;;;;;;8399927;28;20192;-71
2022/11/08 12:15:04;;;;;;;4.60;1.90;;;16.70;99.90;;;;;;8402036;28;20223;-71
2022/11/08 12:19:30;;;;;;;13.70;7.53;;;16.70;99.90;;;;;;8415816;28;20471;-72
2022/11/08 12:23:43;;;;;;;9.10;4.47;;;16.70;99.90;;;;;;8418592;28;20199;-72
2022/11/08 12:27:52;;;;;;;3.40;2.20;;;16.70;1.00;;;;;;8396927;28;20219;-72
2022/11/08 12:32:08;;;;;;;2.47;1.50;;;16.70;1.00;;;;;;8400693;28;20184;-71
2022/11/08 12:36:10;;;;;;;4.53;2.17;;;16.70;1.00;;;;;;8396257;28;20191;-71
2022/11/08 12:40:34;;;;;;;3.90;1.10;;;16.70;1.00;;;;;;8398972;28;20208;-73
2022/11/08 12:45:00;;;;;;;1.23;0.70;;;16.80;99.90;;;;;;8418023;28;20184;-73
2022/11/08 12:49:01;;;;;;;3.53;1.27;;;16.90;99.90;;;;;;8413921;28;20176;-72
2022/11/08 12:53:10;;;;;;;2.73;1.00;;;16.90;99.90;;;;;;8418230;28;20268;-71
2022/11/08 12:57:15;;;;;;;1.97;0.93;;;17.00;99.90;;;;;;8390520;28;20211;-72
2022/11/08 13:01:19;;;;;;;1.83;0.80;;;17.00;99.90;;;;;;8409737;28;20284;-71
2022/11/08 13:05:29;;;;;;;1.50;0.90;;;17.10;99.90;;;;;;8399336;28;20192;-71
2022/11/08 13:09:42;;;;;;;1.80;0.93;;;17.00;99.90;;;;;;8393161;28;20185;-71
2022/11/08 13:13:55;;;;;;;3.10;1.00;;;17.00;99.90;;;;;;8414284;28;20236;-71
2022/11/08 13:18:05;;;;;;;2.60;1.30;;;16.90;99.90;;;;;;8396893;28;20313;-71
2022/11/08 13:22:29;;;;;;;2.30;1.07;;;16.80;99.90;;;;;;8405870;28;20250;-71
2022/11/08 13:26:32;;;;;;;3.13;1.40;;;16.70;99.90;;;;;;8397182;28;20221;-71
2022/11/08 13:30:37;;;;;;;3.10;1.80;;;16.50;99.90;;;;;;8415128;28;20184;-70
2022/11/08 13:35:07;;;;;;;4.57;1.70;;;16.20;99.90;;;;;;8415164;28;20185;-71
2022/11/08 13:39:26;;;;;;;2.23;1.67;;;16.10;1.00;;;;;;8401878;28;20177;-71
2022/11/08 13:43:29;;;;;;;2.27;1.07;;;15.90;1.00;;;;;;8398610;28;20310;-71
2022/11/08 13:47:33;;;;;;;3.10;1.70;;;15.80;1.00;;;;;;8416544;28;20188;-71
2022/11/08 13:51:41;;;;;;;4.23;1.90;;;15.80;1.00;;;;;;8405532;28;20238;-71
2022/11/08 13:55:42;;;;;;;2.77;1.73;;;15.80;1.00;;;;;;8405545;28;20197;-70
2022/11/08 13:59:52;;;;;;;2.53;1.50;;;15.80;1.00;;;;;;8403132;28;20227;-70
2022/11/08 14:03:55;;;;;;;2.70;1.60;;;15.80;1.00;;;;;;8399916;28;20207;-69
2022/11/08 14:08:23;;;;;;;2.23;1.47;;;15.80;1.00;;;;;;8397155;28;20191;-69
2022/11/08 14:12:53;;;;;;;2.23;1.23;;;15.70;59.00;;;;;;8396402;28;21201;-69
2022/11/08 14:17:11;;;;;;;1.87;1.20;;;15.50;99.90;;;;;;8399853;28;20279;-70
2022/11/08 14:21:18;;;;;;;2.40;1.47;;;15.20;99.90;;;;;;8417615;28;20205;-70
2022/11/08 14:25:33;;;;;;;2.30;1.40;;;15.00;99.90;;;;;;8413141;28;20189;-70
2022/11/08 14:29:34;;;;;;;4.50;1.80;;;14.90;99.90;;;;;;8395679;28;20173;-70
2022/11/08 14:33:41;;;;;;;2.17;1.43;;;14.70;1.00;;;;;;8398397;28;20188;-70
2022/11/08 14:37:43;;;;;;;2.47;1.30;;;14.40;1.00;;;;;;8418560;28;20205;-70
2022/11/08 14:41:52;;;;;;;2.67;1.40;;;14.10;1.00;;;;;;8398933;28;20219;-70
2022/11/08 14:45:53;;;;;;;2.67;1.37;;;13.90;66.80;;;;;;8399216;28;20250;-70
2022/11/08 14:49:53;;;;;;;2.60;1.47;;;13.70;99.90;;;;;;8398732;28;20192;-70
2022/11/08 14:53:55;;;;;;;2.03;1.40;;;13.60;99.90;;;;;;8417906;28;20176;-71
2022/11/08 14:57:56;;;;;;;2.03;1.40;;;13.30;99.90;;;;;;8414068;28;20224;-71
2022/11/08 15:01:57;;;;;;;3.07;1.60;;;13.00;99.90;;;;;;8414467;28;20192;-70
2022/11/08 15:06:06;;;;;;;1.50;1.30;;;12.80;1.00;;;;;;8399039;28;20193;-71
2022/11/08 15:10:08;;;;;;;2.20;1.37;;;12.50;99.90;;;;;;8397361;28;20215;-71
2022/11/08 15:14:17;;;;;;;3.13;1.60;;;12.20;99.90;;;;;;8399799;28;20212;-70
2022/11/08 15:18:29;;;;;;;2.60;1.57;;;11.90;1.00;;;;;;8416099;28;20176;-71
2022/11/08 15:22:32;;;;;;;3.67;1.80;;;11.60;98.20;;;;;;8399046;28;20208;-71
2022/11/08 15:26:34;;;;;;;2.97;1.70;;;11.40;99.90;;;;;;8415356;28;20181;-70
2022/11/08 15:30:41;;;;;;;2.67;1.50;;;11.20;99.90;;;;;;8417921;28;20554;-71
2022/11/08 15:34:42;;;;;;;2.50;1.57;;;11.00;99.90;;;;;;8398459;28;20195;-70
2022/11/08 15:38:48;;;;;;;2.43;1.83;;;10.80;56.70;;;;;;8415785;28;20227;-71
2022/11/08 15:42:50;;;;;;;2.50;1.50;;;10.60;99.90;;;;;;8413357;28;20211;-71
2022/11/08 15:46:53;;;;;;;2.10;1.60;;;10.40;1.00;;;;;;8396235;28;20184;-71
2022/11/08 15:50:55;;;;;;;1.93;1.50;;;10.30;99.90;;;;;;8397572;28;20211;-72
2022/11/08 15:54:56;;;;;;;3.57;1.87;;;10.10;99.90;;;;;;8397360;28;20266;-72
2022/11/08 15:58:57;;;;;;;4.03;1.77;;;9.90;1.00;;;;;;8415167;28;20221;-70
2022/11/08 16:02:58;;;;;;;4.83;2.80;;;9.70;99.90;;;;;;8394171;28;20306;-70
2022/11/08 16:06:59;;;;;;;5.07;3.40;;;9.60;1.00;;;;;;8395579;28;20179;-71
2022/11/08 16:11:00;;;;;;;5.50;2.83;;;9.50;1.00;;;;;;8412667;28;20205;-72
2022/11/08 16:15:01;;;;;;;4.57;2.57;;;9.30;1.00;;;;;;8397282;28;20562;-70
2022/11/08 16:19:02;;;;;;;3.23;2.10;;;9.10;99.90;;;;;;8396506;28;20186;-70
2022/11/08 16:23:06;;;;;;;4.03;2.63;;;8.90;99.90;;;;;;8394178;28;20214;-71
2022/11/08 16:27:08;;;;;;;3.10;2.73;;;8.80;99.90;;;;;;8394695;28;20177;-70
2022/11/08 16:31:16;;;;;;;5.23;2.90;;;8.70;99.90;;;;;;8395515;28;20179;-71
2022/11/08 16:35:18;;;;;;;5.03;3.00;;;8.50;1.00;;;;;;8394895;28;20292;-71
2022/11/08 16:39:24;;;;;;;5.13;3.20;;;8.40;28.90;;;;;;8412945;28;20604;-70
2022/11/08 16:43:25;;;;;;;5.90;2.90;;;8.30;99.90;;;;;;8392857;28;20239;-72
2022/11/08 16:47:29;;;;;;;5.43;3.20;;;8.20;99.90;;;;;;8409455;28;20230;-71
2022/11/08 16:51:30;;;;;;;6.93;4.47;;;8.20;99.90;;;;;;8391687;28;20188;-71
2022/11/08 16:55:32;;;;;;;7.87;5.00;;;8.10;99.90;;;;;;8392136;28;20191;-71
2022/11/08 16:59:33;;;;;;;6.63;4.50;;;8.00;99.90;;;;;;8406536;28;20224;-71
2022/11/08 17:03:34;;;;;;;11.40;5.00;;;8.00;99.90;;;;;;8392472;28;20235;-72
2022/11/08 17:07:35;;;;;;;131.70;47.40;;;7.90;99.90;;;;;;8392872;28;20517;-72
2022/11/08 17:11:39;;;;;;;291.93;117.37;;;7.90;99.90;;;;;;8391739;28;20181;-71
2022/11/08 17:15:40;;;;;;;143.70;57.10;;;8.00;99.90;;;;;;8394637;28;20230;-71
2022/11/08 17:19:41;;;;;;;68.60;32.17;;;7.90;99.90;;;;;;8412223;28;20200;-71
2022/11/08 17:23:42;;;;;;;37.73;18.67;;;7.90;99.90;;;;;;8399846;28;20194;-71
2022/11/08 17:27:43;;;;;;;23.00;11.80;;;7.80;99.90;;;;;;8396842;28;20183;-72
2022/11/08 17:31:43;;;;;;;20.73;11.57;;;7.80;99.90;;;;;;8397651;28;20271;-71
2022/11/08 17:35:44;;;;;;;14.43;8.47;;;7.80;99.90;;;;;;8400610;28;20180;-71
2022/11/08 17:39:45;;;;;;;14.27;8.43;;;7.70;99.90;;;;;;8398502;28;20192;-71
2022/11/08 17:43:46;;;;;;;86.83;39.07;;;7.70;99.90;;;;;;8398486;28;20199;-71
2022/11/08 17:47:47;;;;;;;142.13;64.40;;;7.70;99.90;;;;;;8398236;28;20172;-71
2022/11/08 17:51:48;;;;;;;84.67;38.70;;;7.60;99.90;;;;;;8398181;28;20192;-71
2022/11/08 17:55:59;;;;;;;28.63;14.17;;;7.60;99.90;;;;;;8401495;28;20181;-69
2022/11/08 18:00:01;;;;;;;16.40;8.67;;;7.50;99.90;;;;;;8415691;28;20209;-71
2022/11/08 18:04:02;;;;;;;12.90;7.70;;;7.40;99.90;;;;;;8419689;28;20215;-71
2022/11/08 18:08:03;;;;;;;9.17;6.43;;;7.30;99.90;;;;;;8399939;28;20180;-71
2022/11/08 18:12:04;;;;;;;8.17;5.57;;;7.20;99.90;;;;;;8419248;28;20215;-70
2022/11/08 18:16:14;;;;;;;8.93;6.13;;;7.20;99.90;;;;;;8413644;28;20253;-70
2022/11/08 18:20:15;;;;;;;15.03;9.40;;;7.20;99.90;;;;;;8400479;28;20208;-71
2022/11/08 18:24:16;;;;;;;76.93;42.03;;;7.20;99.90;;;;;;8396876;28;20208;-71
2022/11/08 18:28:17;;;;;;;189.37;106.37;;;7.20;99.90;;;;;;8416204;28;20180;-71
2022/11/08 18:32:18;;;;;;;239.60;131.27;;;7.20;99.90;;;;;;8396198;28;20184;-71
2022/11/08 18:36:21;;;;;;;43.33;23.40;;;7.30;99.90;;;;;;8393566;28;20214;-71
2022/11/08 18:40:22;;;;;;;32.83;20.23;;;7.30;99.90;;;;;;8412180;28;20322;-70
2022/11/08 18:44:23;;;;;;;23.77;15.00;;;7.20;99.90;;;;;;8396955;28;20198;-71
2022/11/08 18:48:24;;;;;;;16.17;10.50;;;7.10;99.90;;;;;;8413906;28;20212;-70
2022/11/08 18:52:25;;;;;;;21.60;12.27;;;6.90;99.90;;;;;;8413412;28;20188;-71
2022/11/08 18:56:26;;;;;;;24.17;15.97;;;6.90;99.90;;;;;;8398330;28;20194;-69
2022/11/08 19:00:27;;;;;;;36.57;20.97;;;6.90;99.90;;;;;;8390254;28;20227;-71
2022/11/08 19:04:28;;;;;;;48.73;31.53;;;6.90;99.90;;;;;;8399055;28;20212;-70
2022/11/08 19:08:30;;;;;;;106.87;61.50;;;6.90;99.90;;;;;;8416750;28;20292;-72
2022/11/08 19:12:31;;;;;;;94.60;56.80;;;6.90;99.90;;;;;;8417913;28;20191;-72
2022/11/08 19:16:32;;;;;;;74.33;47.10;;;6.90;99.90;;;;;;8399876;28;20204;-71
2022/11/08 19:20:33;;;;;;;82.80;51.77;;;6.90;99.90;;;;;;8399884;28;20238;-72
2022/11/08 19:24:34;;;;;;;101.10;58.77;;;6.80;99.90;;;;;;8399131;28;20562;-71
2022/11/08 19:28:37;;;;;;;145.03;83.23;;;6.80;99.90;;;;;;8398991;28;20184;-71
2022/11/08 19:32:37;;;;;;;150.53;86.20;;;6.80;99.90;;;;;;8398448;28;20185;-72
2022/11/08 19:36:42;;;;;;;124.47;69.93;;;6.80;99.90;;;;;;8414577;28;20215;-71
2022/11/08 19:40:46;;;;;;;84.30;50.30;;;6.80;99.90;;;;;;8414458;28;20236;-73
2022/11/08 19:44:46;;;;;;;47.20;31.73;;;6.80;99.90;;;;;;8416052;28;20540;-72
2022/11/08 19:48:49;;;;;;;33.60;21.60;;;6.80;99.90;;;;;;8398146;28;20289;-72
2022/11/08 19:52:49;;;;;;;33.30;21.27;;;6.80;99.90;;;;;;8416987;28;20196;-71
2022/11/08 19:56:50;;;;;;;39.43;25.23;;;6.70;99.90;;;;;;8396542;28;20231;-71
2022/11/08 20:00:51;;;;;;;103.20;60.70;;;6.70;99.90;;;;;;8395699;28;20203;-72
2022/11/08 20:04:52;;;;;;;111.87;66.07;;;6.60;99.90;;;;;;8403566;28;20235;-72
2022/11/08 20:09:02;;;;;;;123.90;72.53;;;6.60;99.90;;;;;;8359698;28;20549;-71
2022/11/08 20:13:03;;;;;;;86.60;44.77;;;6.50;99.90;;;;;;8351580;28;20186;-71
2022/11/08 20:17:03;;;;;;;67.90;38.97;;;6.40;99.90;;;;;;8341861;28;20598;-71
2022/11/08 20:21:06;;;;;;;45.10;26.93;;;6.30;99.90;;;;;;8344532;28;20273;-71
2022/11/08 20:25:07;;;;;;;29.97;18.97;;;6.20;99.90;;;;;;8341784;28;20273;-71
2022/11/08 20:29:09;;;;;;;23.40;13.53;;;6.10;99.90;;;;;;8339889;28;20183;-72
2022/11/08 20:33:10;;;;;;;18.17;11.40;;;6.00;99.90;;;;;;8357922;28;20186;-70
2022/11/08 20:37:13;;;;;;;16.43;11.80;;;6.00;99.90;;;;;;8340568;28;20182;-71
2022/11/08 20:41:15;;;;;;;24.17;16.23;;;6.00;99.90;;;;;;8344297;28;20732;-69
2022/11/08 20:45:16;;;;;;;56.47;33.20;;;6.00;99.90;;;;;;8341694;28;20232;-71
2022/11/08 20:49:17;;;;;;;127.70;71.20;;;6.10;99.90;;;;;;8335830;28;20186;-71
2022/11/08 20:53:18;;;;;;;180.37;107.03;;;6.10;99.90;;;;;;8342374;28;20253;-71
2022/11/08 20:57:19;;;;;;;187.07;106.83;;;6.20;99.90;;;;;;8358780;28;20213;-72
2022/11/08 21:01:26;;;;;;;157.77;92.93;;;6.20;99.90;;;;;;8328335;28;20217;-70
2022/11/08 21:05:27;;;;;;;156.60;86.30;;;6.20;99.90;;;;;;8330109;28;20220;-71
2022/11/08 21:09:30;;;;;;;115.43;67.70;;;6.20;99.90;;;;;;8339669;28;20186;-71
2022/11/08 21:13:34;;;;;;;112.70;66.73;;;6.10;99.90;;;;;;8339303;28;20193;-70
2022/11/08 21:17:35;;;;;;;94.63;54.63;;;6.10;99.90;;;;;;8335959;28;20193;-72
2022/11/08 21:21:36;;;;;;;70.00;40.20;;;6.00;99.90;;;;;;8317982;28;20201;-70
2022/11/08 21:25:37;;;;;;;118.50;67.07;;;6.00;99.90;;;;;;8320444;28;20287;-72
2022/11/08 21:29:38;;;;;;;88.90;51.77;;;6.00;99.90;;;;;;8322571;28;20257;-72
2022/11/08 21:33:39;;;;;;;67.17;40.73;;;6.00;99.90;;;;;;8318361;28;20178;-72